createdAt,value
2019-05-06T00:00:52.553Z,8.03
2019-05-06T00:02:45.276Z,7.37
2019-05-06T00:04:49.455Z,7.30
2019-05-06T00:06:54.819Z,7.17
2019-05-06T00:08:59.842Z,7.80
2019-05-06T00:11:04.898Z,7.07
2019-05-06T00:13:13.941Z,6.90
2019-05-06T00:15:23.523Z,7.67
2019-05-06T00:17:27.945Z,7.00
2019-05-06T00:19:34.117Z,7.60
2019-05-06T00:21:39.207Z,7.10
2019-05-06T00:23:50.763Z,7.53
2019-05-06T00:26:05.317Z,7.60
2019-05-06T00:28:24.792Z,6.80
2019-05-06T00:30:28.972Z,7.50
2019-05-06T00:32:34.807Z,6.83
2019-05-06T00:34:39.891Z,6.60
2019-05-06T00:36:44.219Z,6.10
2019-05-06T00:38:53.832Z,7.57
2019-05-06T00:41:01.417Z,7.30
2019-05-06T00:43:10.224Z,7.00
2019-05-06T00:45:18.256Z,6.93
2019-05-06T00:47:26.366Z,6.60
2019-05-06T00:49:30.956Z,5.90
2019-05-06T00:51:35.556Z,7.37
2019-05-06T00:53:43.725Z,6.60
2019-05-06T00:55:48.501Z,7.00
2019-05-06T00:57:54.487Z,6.70
2019-05-06T00:59:58.845Z,6.50
2019-05-06T01:02:04.608Z,6.60
2019-05-06T01:04:13.868Z,6.40
2019-05-06T01:06:19.875Z,6.10
2019-05-06T01:08:27.774Z,6.10
2019-05-06T01:10:34.373Z,5.80
2019-05-06T01:12:40.886Z,5.90
2019-05-06T01:14:49.127Z,6.23
2019-05-06T01:16:54.870Z,6.03
2019-05-06T01:18:59.613Z,6.20
2019-05-06T01:21:14.731Z,5.90
2019-05-06T01:23:24.628Z,6.40
2019-05-06T01:25:29.325Z,6.07
2019-05-06T01:27:33.796Z,5.70
2019-05-06T01:29:38.112Z,5.70
2019-05-06T01:31:43.778Z,6.30
2019-05-06T01:33:48.351Z,5.80
2019-05-06T01:35:54.219Z,6.07
2019-05-06T01:38:16.365Z,5.93
2019-05-06T01:40:32.164Z,5.30
2019-05-06T01:42:46.679Z,5.80
2019-05-06T01:44:50.920Z,5.67
2019-05-06T01:46:55.825Z,6.33
2019-05-06T01:49:00.308Z,6.07
2019-05-06T01:51:05.431Z,5.13
2019-05-06T01:53:14.205Z,5.40
2019-05-06T01:55:24.826Z,5.43
2019-05-06T01:57:29.420Z,5.90
2019-05-06T01:59:34.365Z,5.37
2019-05-06T02:01:38.839Z,5.80
2019-05-06T02:03:45.482Z,5.37
2019-05-06T02:05:51.388Z,5.60
2019-05-06T02:07:57.061Z,5.13
2019-05-06T02:10:03.967Z,5.20
2019-05-06T02:12:08.636Z,5.17
2019-05-06T02:14:14.377Z,5.53
2019-05-06T02:16:20.878Z,5.60
2019-05-06T02:18:27.850Z,5.37
2019-05-06T02:20:33.936Z,5.33
2019-05-06T02:23:14.569Z,5.10
2019-05-06T02:25:46.490Z,5.30
2019-05-06T02:27:51.073Z,5.20
2019-05-06T02:30:15.285Z,5.13
2019-05-06T02:32:39.402Z,4.97
2019-05-06T02:34:49.002Z,5.13
2019-05-06T02:36:58.818Z,5.70
2019-05-06T02:39:07.797Z,5.10
2019-05-06T02:41:14.600Z,5.83
2019-05-06T02:43:24.694Z,5.30
2019-05-06T02:45:33.440Z,5.37
2019-05-06T02:47:47.255Z,5.90
2019-05-06T02:49:57.684Z,5.70
2019-05-06T02:52:05.042Z,5.43
2019-05-06T02:54:13.638Z,6.03
2019-05-06T02:56:23.824Z,5.47
2019-05-06T02:58:27.488Z,5.40
2019-05-06T03:00:33.029Z,5.13
2019-05-06T03:02:43.205Z,5.63
2019-05-06T03:04:44.159Z,5.60
2019-05-06T03:06:48.979Z,5.40
2019-05-06T03:08:54.418Z,5.40
2019-05-06T03:10:59.143Z,5.10
2019-05-06T03:13:04.012Z,5.00
2019-05-06T03:15:10.324Z,4.70
2019-05-06T03:17:15.960Z,5.60
2019-05-06T03:19:24.332Z,4.43
2019-05-06T03:22:03.533Z,5.30
2019-05-06T03:24:33.627Z,4.57
2019-05-06T03:26:38.492Z,5.67
2019-05-06T03:28:44.200Z,4.70
2019-05-06T03:30:48.897Z,4.60
2019-05-06T03:33:23.522Z,5.53
2019-05-06T03:35:19.522Z,4.67
2019-05-06T03:37:08.244Z,4.33
2019-05-06T03:39:14.884Z,4.83
2019-05-06T03:41:26.179Z,4.70
2019-05-06T03:43:27.321Z,4.93
2019-05-06T03:45:53.590Z,4.90
2019-05-06T03:48:05.903Z,5.47
2019-05-06T03:50:13.259Z,4.90
2019-05-06T03:52:23.209Z,5.40
2019-05-06T03:54:27.680Z,5.33
2019-05-06T03:56:33.876Z,6.00
2019-05-06T03:58:38.641Z,6.67
2019-05-06T04:00:43.816Z,5.30
2019-05-06T04:02:48.152Z,5.27
2019-05-06T04:04:55.747Z,5.33
2019-05-06T04:06:59.019Z,6.90
2019-05-06T04:09:05.397Z,6.10
2019-05-06T04:11:13.577Z,6.97
2019-05-06T04:13:23.119Z,6.43
2019-05-06T04:15:29.447Z,6.77
2019-05-06T04:17:56.024Z,6.53
2019-05-06T04:20:12.611Z,6.83
2019-05-06T04:22:53.090Z,7.30
2019-05-06T04:25:13.788Z,6.70
2019-05-06T04:27:50.311Z,7.40
2019-05-06T04:29:55.179Z,8.40
2019-05-06T04:32:03.293Z,7.80
2019-05-06T04:34:14.654Z,7.90
2019-05-06T04:36:23.724Z,7.43
2019-05-06T04:38:26.109Z,7.70
2019-05-06T04:40:32.932Z,7.37
2019-05-06T04:42:36.302Z,8.57
2019-05-06T04:44:43.697Z,7.90
2019-05-06T04:46:47.084Z,8.40
2019-05-06T04:48:53.877Z,7.90
2019-05-06T04:50:58.492Z,8.93
2019-05-06T04:53:05.179Z,8.53
2019-05-06T04:55:14.013Z,8.37
2019-05-06T04:57:25.063Z,8.53
2019-05-06T04:59:32.421Z,9.80
2019-05-06T05:01:36.048Z,9.00
2019-05-06T05:03:42.764Z,9.87
2019-05-06T05:05:47.094Z,9.93
2019-05-06T05:07:52.968Z,9.20
2019-05-06T05:10:06.972Z,9.53
2019-05-06T05:12:23.133Z,9.43
2019-05-06T05:14:42.341Z,9.03
2019-05-06T05:16:52.858Z,9.40
2019-05-06T05:19:06.232Z,9.03
2019-05-06T05:21:13.582Z,9.30
2019-05-06T05:23:24.452Z,9.43
2019-05-06T05:25:28.749Z,9.03
2019-05-06T05:27:33.052Z,9.10
2019-05-06T05:29:37.453Z,8.90
2019-05-06T05:31:43.668Z,9.73
2019-05-06T05:33:48.339Z,9.00
2019-05-06T05:35:53.027Z,9.57
2019-05-06T05:37:57.828Z,9.13
2019-05-06T05:40:03.069Z,8.90
2019-05-06T05:42:25.046Z,9.00
2019-05-06T05:44:32.917Z,8.80
2019-05-06T05:46:37.314Z,8.97
2019-05-06T05:49:13.002Z,8.53
2019-05-06T05:51:22.376Z,8.83
2019-05-06T05:53:26.734Z,8.90
2019-05-06T05:55:32.883Z,8.07
2019-05-06T05:57:37.617Z,8.20
2019-05-06T05:59:42.235Z,11.87
2019-05-06T06:01:46.440Z,153.80
2019-05-06T06:03:52.616Z,272.00
2019-05-06T06:05:56.471Z,341.13
2019-05-06T06:08:02.886Z,268.73
2019-05-06T06:10:33.339Z,240.70
2019-05-06T06:12:37.484Z,226.63
2019-05-06T06:14:57.955Z,227.17
2019-05-06T06:17:24.455Z,229.73
2019-05-06T06:19:40.452Z,450.03
2019-05-06T06:21:52.392Z,475.33
2019-05-06T06:23:59.650Z,336.33
2019-05-06T06:26:04.395Z,310.43
2019-05-06T06:28:12.338Z,307.43
2019-05-06T06:30:22.156Z,311.00
2019-05-06T06:32:32.578Z,313.77
2019-05-06T06:34:42.721Z,313.07
2019-05-06T06:36:56.974Z,312.50
2019-05-06T06:39:12.495Z,297.60
2019-05-06T06:41:19.966Z,288.83
2019-05-06T06:43:27.996Z,279.87
2019-05-06T06:45:32.702Z,275.47
2019-05-06T06:47:37.047Z,272.03
2019-05-06T06:49:42.402Z,255.53
2019-05-06T06:51:47.308Z,262.00
2019-05-06T06:53:52.967Z,243.63
2019-05-06T06:56:24.098Z,362.93
2019-05-06T06:58:32.465Z,331.27
2019-05-06T07:00:54.343Z,357.00
2019-05-06T07:03:03.229Z,375.87
2019-05-06T07:05:27.535Z,379.50
2019-05-06T07:07:40.216Z,385.07
2019-05-06T07:09:32.474Z,374.20
2019-05-06T07:11:37.074Z,374.07
2019-05-06T07:13:50.010Z,365.93
2019-05-06T07:15:54.713Z,356.40
2019-05-06T07:17:58.956Z,347.77
2019-05-06T07:20:07.352Z,342.37
2019-05-06T07:22:14.777Z,335.27
2019-05-06T07:24:23.022Z,327.70
2019-05-06T07:26:31.810Z,316.93
2019-05-06T07:28:36.302Z,314.13
2019-05-06T07:30:41.959Z,308.20
2019-05-06T07:32:46.424Z,284.87
2019-05-06T07:34:53.007Z,292.47
2019-05-06T07:36:58.129Z,288.40
2019-05-06T07:39:04.204Z,277.30
2019-05-06T07:41:17.283Z,322.30
2019-05-06T07:43:34.603Z,357.10
2019-05-06T07:45:45.231Z,370.93
2019-05-06T07:47:53.191Z,371.97
2019-05-06T07:49:57.635Z,385.33
2019-05-06T07:52:02.942Z,401.30
2019-05-06T07:54:09.530Z,402.43
2019-05-06T07:56:15.768Z,400.10
2019-05-06T07:58:26.265Z,397.90
2019-05-06T08:00:32.680Z,382.97
2019-05-06T08:02:36.666Z,389.33
2019-05-06T08:04:42.087Z,449.00
2019-05-06T08:06:46.826Z,450.40
2019-05-06T08:08:53.720Z,458.73
2019-05-06T08:10:56.950Z,462.57
2019-05-06T08:13:02.684Z,463.20
2019-05-06T08:15:12.555Z,468.40
2019-05-06T08:17:32.931Z,470.97
2019-05-06T08:19:36.891Z,454.30
2019-05-06T08:21:43.905Z,443.80
2019-05-06T08:23:52.148Z,442.80
2019-05-06T08:26:09.058Z,462.87
2019-05-06T08:28:03.158Z,479.27
2019-05-06T08:30:12.739Z,496.97
2019-05-06T08:32:20.218Z,503.00
2019-05-06T08:34:26.709Z,496.07
2019-05-06T08:36:42.469Z,506.67
2019-05-06T08:39:02.423Z,499.63
2019-05-06T08:41:07.593Z,497.47
2019-05-06T08:43:16.897Z,488.60
2019-05-06T08:45:26.537Z,480.00
2019-05-06T08:47:32.856Z,484.87
2019-05-06T08:50:05.660Z,520.63
2019-05-06T08:52:13.773Z,532.93
2019-05-06T08:54:32.494Z,546.07
2019-05-06T08:56:37.362Z,559.87
2019-05-06T08:58:52.770Z,546.23
2019-05-06T09:01:05.151Z,555.83
2019-05-06T09:03:14.308Z,547.90
2019-05-06T09:05:24.914Z,527.53
2019-05-06T09:07:29.258Z,525.83
2019-05-06T09:09:33.483Z,510.67
2019-05-06T09:11:39.073Z,504.47
2019-05-06T09:13:43.628Z,501.43
2019-05-06T09:15:48.263Z,490.93
2019-05-06T09:17:52.719Z,482.83
2019-05-06T09:19:57.584Z,467.67
2019-05-06T09:22:02.577Z,463.77
2019-05-06T09:24:09.008Z,456.40
2019-05-06T09:26:22.442Z,446.77
2019-05-06T09:28:42.502Z,434.50
2019-05-06T09:30:53.822Z,426.77
2019-05-06T09:32:58.417Z,420.67
2019-05-06T09:35:03.127Z,405.67
2019-05-06T09:37:14.357Z,407.20
2019-05-06T09:39:25.104Z,418.10
2019-05-06T09:41:29.303Z,417.00
2019-05-06T09:43:34.515Z,444.20
2019-05-06T09:45:39.025Z,459.37
2019-05-06T09:48:03.676Z,471.27
2019-05-06T09:50:13.066Z,470.70
2019-05-06T09:52:19.172Z,473.50
2019-05-06T09:54:47.674Z,469.23
2019-05-06T09:56:59.757Z,459.17
2019-05-06T09:59:04.407Z,449.67
2019-05-06T10:01:12.944Z,435.53
2019-05-06T10:03:22.613Z,438.17
2019-05-06T10:05:27.054Z,424.80
2019-05-06T10:07:33.898Z,413.00
2019-05-06T10:09:38.675Z,404.17
2019-05-06T10:11:43.529Z,399.97
2019-05-06T10:13:48.924Z,386.93
2019-05-06T10:15:57.611Z,377.67
2019-05-06T10:18:13.563Z,367.23
2019-05-06T10:20:24.918Z,700.90
2019-05-06T10:22:33.567Z,426.23
2019-05-06T10:24:43.115Z,437.03
2019-05-06T10:26:52.413Z,467.30
2019-05-06T10:29:23.288Z,464.80
2019-05-06T10:31:32.704Z,469.17
2019-05-06T10:33:57.069Z,464.90
2019-05-06T10:36:09.204Z,463.33
2019-05-06T10:38:36.000Z,450.97
2019-05-06T10:40:58.984Z,440.30
2019-05-06T10:42:55.491Z,439.90
2019-05-06T10:45:32.195Z,424.57
2019-05-06T10:47:37.466Z,408.07
2019-05-06T10:49:42.680Z,402.10
2019-05-06T10:51:53.981Z,394.40
2019-05-06T10:53:59.127Z,400.17
2019-05-06T10:56:24.339Z,389.87
2019-05-06T10:58:29.214Z,442.57
2019-05-06T11:00:33.643Z,463.53
2019-05-06T11:02:54.309Z,463.23
2019-05-06T11:04:59.045Z,492.00
2019-05-06T11:07:06.312Z,503.70
2019-05-06T11:09:22.551Z,506.53
2019-05-06T11:11:35.117Z,507.03
2019-05-06T11:13:37.557Z,483.20
2019-05-06T11:15:43.530Z,477.83
2019-05-06T11:17:50.045Z,465.07
2019-05-06T11:19:55.229Z,456.20
2019-05-06T11:22:08.250Z,450.30
2019-05-06T11:24:18.364Z,428.73
2019-05-06T11:26:28.343Z,422.40
2019-05-06T11:28:46.123Z,414.93
2019-05-06T11:31:14.124Z,408.80
2019-05-06T11:33:42.319Z,423.80
2019-05-06T11:35:52.974Z,465.97
2019-05-06T11:38:03.533Z,457.10
2019-05-06T11:40:16.623Z,482.33
2019-05-06T11:42:31.831Z,485.60
2019-05-06T11:44:27.057Z,487.87
2019-05-06T11:46:32.265Z,473.23
2019-05-06T11:48:36.746Z,458.40
2019-05-06T11:50:42.813Z,452.97
2019-05-06T11:52:47.404Z,449.73
2019-05-06T11:54:52.853Z,434.77
2019-05-06T11:56:58.770Z,424.43
2019-05-06T11:59:03.947Z,421.40
2019-05-06T12:01:15.240Z,409.83
2019-05-06T12:03:20.650Z,401.10
2019-05-06T12:05:25.458Z,395.07
2019-05-06T12:07:29.966Z,386.10
2019-05-06T12:09:34.521Z,380.23
2019-05-06T12:11:39.607Z,369.70
2019-05-06T12:13:44.250Z,355.37
2019-05-06T12:15:48.535Z,355.20
2019-05-06T12:17:53.448Z,356.50
2019-05-06T12:19:58.063Z,369.03
2019-05-06T12:22:02.687Z,374.40
2019-05-06T12:24:08.034Z,393.40
2019-05-06T12:26:14.858Z,403.60
2019-05-06T12:28:20.278Z,417.07
2019-05-06T12:30:25.035Z,419.00
2019-05-06T12:32:35.472Z,410.53
2019-05-06T12:34:40.014Z,408.00
2019-05-06T12:36:44.245Z,391.00
2019-05-06T12:39:06.828Z,392.23
2019-05-06T12:41:13.934Z,377.53
2019-05-06T12:43:46.743Z,374.00
2019-05-06T12:45:53.161Z,368.13
2019-05-06T12:48:22.999Z,352.63
2019-05-06T12:50:28.083Z,340.40
2019-05-06T12:52:33.604Z,336.63
2019-05-06T12:54:38.242Z,333.10
2019-05-06T12:56:43.053Z,324.83
2019-05-06T12:58:47.897Z,341.73
2019-05-06T13:00:54.272Z,347.33
2019-05-06T13:03:02.098Z,373.83
2019-05-06T13:05:08.549Z,378.30
2019-05-06T13:07:26.059Z,398.83
2019-05-06T13:09:30.306Z,408.73
2019-05-06T13:11:34.651Z,394.73
2019-05-06T13:13:56.161Z,385.93
2019-05-06T13:15:46.150Z,379.80
2019-05-06T13:17:50.469Z,364.37
2019-05-06T13:19:54.769Z,365.90
2019-05-06T13:22:03.621Z,355.43
2019-05-06T13:24:08.596Z,348.83
2019-05-06T13:26:15.480Z,349.73
2019-05-06T13:28:30.408Z,334.33
2019-05-06T13:30:34.049Z,331.40
2019-05-06T13:32:42.540Z,316.00
2019-05-06T13:34:47.023Z,314.90
2019-05-06T13:36:53.307Z,303.73
2019-05-06T13:39:13.326Z,304.00
2019-05-06T13:41:08.293Z,327.57
2019-05-06T13:43:46.207Z,353.47
2019-05-06T13:45:52.860Z,396.03
2019-05-06T13:48:22.882Z,419.00
2019-05-06T13:50:31.033Z,408.60
2019-05-06T13:52:38.283Z,393.93
2019-05-06T13:54:43.082Z,395.70
2019-05-06T13:56:49.079Z,391.90
2019-05-06T13:58:54.079Z,378.40
2019-05-06T14:01:00.105Z,374.37
2019-05-06T14:03:06.532Z,377.60
2019-05-06T14:05:13.664Z,366.30
2019-05-06T14:07:24.552Z,369.50
2019-05-06T14:09:33.488Z,394.20
2019-05-06T14:11:35.748Z,421.30
2019-05-06T14:13:42.192Z,444.03
2019-05-06T14:15:46.983Z,431.40
2019-05-06T14:17:53.191Z,439.30
2019-05-06T14:19:57.985Z,431.77
2019-05-06T14:22:03.110Z,420.93
2019-05-06T14:24:13.242Z,413.03
2019-05-06T14:26:29.815Z,400.40
2019-05-06T14:28:45.489Z,402.60
2019-05-06T14:31:11.341Z,385.97
2019-05-06T14:33:32.601Z,387.57
2019-05-06T14:35:38.304Z,394.83
2019-05-06T14:37:45.715Z,427.87
2019-05-06T14:39:58.017Z,446.47
2019-05-06T14:41:58.314Z,465.90
2019-05-06T14:44:05.235Z,456.63
2019-05-06T14:46:12.063Z,454.50
2019-05-06T14:48:18.608Z,448.23
2019-05-06T14:50:31.804Z,439.90
2019-05-06T14:52:30.103Z,437.37
2019-05-06T14:54:44.559Z,437.83
2019-05-06T14:56:55.338Z,423.87
2019-05-06T14:59:06.837Z,418.60
2019-05-06T15:01:22.798Z,392.07
2019-05-06T15:03:32.433Z,389.10
2019-05-06T15:05:37.270Z,396.17
2019-05-06T15:07:42.171Z,373.80
2019-05-06T15:10:02.096Z,381.30
2019-05-06T15:11:52.833Z,351.00
2019-05-06T15:13:57.592Z,363.00
2019-05-06T15:16:03.545Z,352.90
2019-05-06T15:18:12.575Z,345.40
2019-05-06T15:20:18.436Z,328.53
2019-05-06T15:22:25.916Z,323.83
2019-05-06T15:24:30.614Z,317.20
2019-05-06T15:26:34.934Z,309.47
2019-05-06T15:28:39.403Z,311.97
2019-05-06T15:30:54.648Z,296.60
2019-05-06T15:32:58.862Z,295.57
2019-05-06T15:35:29.566Z,282.80
2019-05-06T15:38:02.351Z,280.87
2019-05-06T15:40:09.343Z,276.07
2019-05-06T15:42:22.391Z,270.40
2019-05-06T15:44:26.492Z,264.47
2019-05-06T15:46:32.293Z,257.83
2019-05-06T15:48:37.048Z,249.63
2019-05-06T15:50:45.406Z,239.40
2019-05-06T15:52:47.837Z,242.40
2019-05-06T15:54:52.657Z,232.93
2019-05-06T15:56:57.027Z,226.93
2019-05-06T15:59:02.692Z,225.90
2019-05-06T16:01:09.682Z,215.63
2019-05-06T16:03:15.285Z,209.23
2019-05-06T16:05:27.228Z,208.07
2019-05-06T16:07:34.672Z,200.70
2019-05-06T16:09:37.305Z,197.73
2019-05-06T16:11:41.858Z,190.43
2019-05-06T16:13:47.817Z,184.30
2019-05-06T16:15:53.225Z,178.17
2019-05-06T16:17:57.440Z,177.73
2019-05-06T16:20:02.718Z,170.67
2019-05-06T16:22:08.550Z,163.83
2019-05-06T16:24:29.845Z,162.30
2019-05-06T16:26:34.560Z,158.33
2019-05-06T16:28:38.820Z,156.17
2019-05-06T16:30:43.498Z,149.07
2019-05-06T16:32:49.922Z,151.17
2019-05-06T16:34:54.494Z,145.17
2019-05-06T16:36:58.735Z,142.43
2019-05-06T16:39:07.192Z,137.80
2019-05-06T16:41:16.289Z,137.57
2019-05-06T16:43:27.145Z,130.53
2019-05-06T16:45:31.800Z,129.87
2019-05-06T16:47:39.731Z,123.57
2019-05-06T16:49:43.995Z,123.60
2019-05-06T16:51:49.246Z,116.93
2019-05-06T16:53:54.958Z,115.90
2019-05-06T16:56:08.764Z,118.40
2019-05-06T16:58:15.860Z,108.67
2019-05-06T17:00:23.677Z,110.13
2019-05-06T17:02:34.470Z,103.37
2019-05-06T17:04:44.531Z,103.80
2019-05-06T17:06:48.907Z,101.30
2019-05-06T17:08:53.245Z,100.00
2019-05-06T17:10:57.751Z,97.03
2019-05-06T17:13:03.053Z,95.37
2019-05-06T17:15:09.416Z,90.67
2019-05-06T17:17:15.863Z,87.30
2019-05-06T17:19:26.359Z,88.03
2019-05-06T17:21:32.687Z,84.70
2019-05-06T17:23:37.231Z,333.57
2019-05-06T17:25:42.302Z,482.07
2019-05-06T17:27:49.548Z,398.07
2019-05-06T17:30:01.215Z,404.63
2019-05-06T17:32:36.464Z,316.63
2019-05-06T17:34:43.785Z,612.20
2019-05-06T17:36:56.713Z,369.77
2019-05-06T17:39:02.696Z,298.10
2019-05-06T17:41:12.177Z,278.77
2019-05-06T17:43:28.371Z,270.77
2019-05-06T17:46:01.755Z,313.63
2019-05-06T17:48:18.882Z,324.57
2019-05-06T17:50:29.534Z,252.87
2019-05-06T17:52:33.960Z,254.00
2019-05-06T17:54:38.918Z,241.43
2019-05-06T17:56:43.575Z,232.43
2019-05-06T17:58:47.903Z,226.93
2019-05-06T18:00:53.457Z,219.27
2019-05-06T18:02:58.532Z,223.07
2019-05-06T18:05:04.353Z,228.40
2019-05-06T18:07:12.257Z,215.03
2019-05-06T18:09:22.944Z,203.47
2019-05-06T18:11:27.547Z,225.80
2019-05-06T18:13:32.085Z,194.87
2019-05-06T18:15:36.774Z,188.67
2019-05-06T18:17:42.633Z,191.27
2019-05-06T18:19:47.145Z,176.77
2019-05-06T18:21:52.928Z,176.23
2019-05-06T18:23:57.158Z,167.10
2019-05-06T18:26:03.187Z,490.03
2019-05-06T18:28:12.106Z,166.00
2019-05-06T18:30:23.431Z,164.97
2019-05-06T18:32:26.186Z,157.70
2019-05-06T18:34:32.594Z,152.43
2019-05-06T18:36:36.814Z,148.47
2019-05-06T18:38:42.096Z,143.50
2019-05-06T18:40:52.842Z,138.13
2019-05-06T18:42:56.411Z,137.17
2019-05-06T18:45:02.590Z,137.23
2019-05-06T18:47:09.097Z,130.53
2019-05-06T18:49:14.951Z,126.90
2019-05-06T18:51:22.317Z,125.10
2019-05-06T18:53:33.125Z,121.80
2019-05-06T18:55:36.997Z,117.40
2019-05-06T18:57:42.395Z,114.63
2019-05-06T18:59:46.617Z,116.80
2019-05-06T19:01:51.026Z,112.60
2019-05-06T19:04:19.342Z,109.63
2019-05-06T19:06:29.951Z,106.37
2019-05-06T19:08:42.525Z,117.40
2019-05-06T19:10:46.726Z,106.50
2019-05-06T19:12:52.670Z,101.00
2019-05-06T19:14:57.251Z,94.53
2019-05-06T19:17:02.718Z,113.73
2019-05-06T19:19:12.301Z,92.60
2019-05-06T19:21:17.892Z,93.13
2019-05-06T19:23:25.897Z,152.40
2019-05-06T19:25:33.963Z,86.40
2019-05-06T19:27:36.626Z,94.20
2019-05-06T19:29:42.772Z,214.40
2019-05-06T19:31:47.456Z,340.60
2019-05-06T19:33:52.650Z,237.20
2019-05-06T19:35:57.663Z,240.33
2019-05-06T19:38:05.050Z,266.00
2019-05-06T19:40:13.611Z,285.07
2019-05-06T19:42:28.399Z,283.70
2019-05-06T19:44:33.116Z,272.20
2019-05-06T19:46:37.309Z,255.10
2019-05-06T19:48:43.225Z,246.50
2019-05-06T19:50:49.239Z,244.63
2019-05-06T19:52:53.474Z,239.90
2019-05-06T19:54:57.731Z,227.67
2019-05-06T19:57:02.599Z,221.50
2019-05-06T19:59:12.965Z,230.50
2019-05-06T20:01:29.536Z,220.90
2019-05-06T20:03:34.413Z,211.27
2019-05-06T20:05:59.251Z,200.73
2019-05-06T20:08:12.482Z,190.83
2019-05-06T20:10:49.519Z,188.70
2019-05-06T20:13:01.948Z,180.77
2019-05-06T20:15:22.275Z,181.50
2019-05-06T20:17:29.677Z,228.83
2019-05-06T20:19:42.609Z,363.07
2019-05-06T20:21:47.082Z,402.90
2019-05-06T20:23:52.581Z,371.17
2019-05-06T20:25:57.107Z,376.03
2019-05-06T20:28:02.385Z,365.13
2019-05-06T20:30:09.772Z,462.97
2019-05-06T20:32:22.648Z,412.57
2019-05-06T20:34:26.591Z,330.67
2019-05-06T20:36:33.206Z,322.10
2019-05-06T20:38:39.172Z,320.63
2019-05-06T20:40:52.615Z,310.00
2019-05-06T20:43:15.743Z,293.27
2019-05-06T20:45:12.799Z,295.40
2019-05-06T20:47:45.032Z,285.27
2019-05-06T20:49:49.640Z,273.57
2019-05-06T20:51:53.855Z,268.27
2019-05-06T20:53:58.586Z,282.70
2019-05-06T20:56:03.047Z,272.07
2019-05-06T20:58:13.194Z,260.73
2019-05-06T21:00:22.267Z,251.63
2019-05-06T21:02:27.331Z,248.63
2019-05-06T21:04:32.436Z,234.07
2019-05-06T21:06:36.761Z,231.33
2019-05-06T21:08:42.155Z,220.97
2019-05-06T21:10:49.497Z,220.70
2019-05-06T21:12:53.239Z,207.20
2019-05-06T21:14:57.974Z,202.87
2019-05-06T21:17:02.655Z,199.10
2019-05-06T21:19:12.405Z,195.67
2019-05-06T21:21:17.600Z,472.83
2019-05-06T21:23:25.311Z,272.10
2019-05-06T21:25:32.018Z,358.43
2019-05-06T21:27:36.183Z,198.07
2019-05-06T21:29:42.063Z,173.10
2019-05-06T21:31:46.364Z,442.40
2019-05-06T21:33:52.206Z,273.77
2019-05-06T21:35:56.892Z,279.93
2019-05-06T21:38:02.495Z,170.67
2019-05-06T21:40:19.275Z,162.00
2019-05-06T21:42:25.612Z,156.00
2019-05-06T21:44:34.086Z,202.43
2019-05-06T21:46:39.071Z,168.67
2019-05-06T21:48:46.325Z,150.97
2019-05-06T21:50:52.195Z,149.73
2019-05-06T21:53:07.815Z,139.80
2019-05-06T21:55:18.602Z,131.17
2019-05-06T21:57:27.015Z,150.63
2019-05-06T21:59:31.673Z,143.87
2019-05-06T22:01:37.060Z,126.90
2019-05-06T22:03:46.421Z,126.60
2019-05-06T22:05:54.263Z,132.77
2019-05-06T22:07:57.865Z,124.30
2019-05-06T22:10:05.087Z,122.87
2019-05-06T22:12:27.768Z,121.20
2019-05-06T22:14:32.628Z,114.50
2019-05-06T22:16:43.691Z,418.30
2019-05-06T22:18:53.397Z,115.37
2019-05-06T22:21:27.441Z,109.17
2019-05-06T22:23:50.775Z,127.73
2019-05-06T22:26:08.543Z,96.13
2019-05-06T22:28:02.471Z,90.93
2019-05-06T22:30:08.405Z,84.20
2019-05-06T22:32:16.273Z,82.50
2019-05-06T22:34:25.253Z,77.90
2019-05-06T22:36:35.649Z,74.87
2019-05-06T22:38:41.975Z,70.60
2019-05-06T22:40:47.073Z,66.30
2019-05-06T22:42:52.818Z,67.47
2019-05-06T22:44:58.080Z,63.13
2019-05-06T22:47:02.974Z,64.50
2019-05-06T22:49:13.146Z,61.57
2019-05-06T22:51:26.325Z,59.93
2019-05-06T22:53:32.713Z,57.03
2019-05-06T22:55:38.066Z,55.83
2019-05-06T22:57:44.269Z,55.00
2019-05-06T22:59:51.881Z,53.10
2019-05-06T23:02:22.621Z,51.40
2019-05-06T23:04:35.026Z,50.63
2019-05-06T23:06:40.541Z,46.43
2019-05-06T23:08:44.815Z,46.33
2019-05-06T23:10:49.596Z,46.67
2019-05-06T23:12:53.812Z,43.77
2019-05-06T23:14:58.115Z,43.23
2019-05-06T23:17:02.963Z,43.23
2019-05-06T23:19:10.243Z,41.63
2019-05-06T23:21:16.275Z,39.23
2019-05-06T23:23:22.367Z,39.47
2019-05-06T23:25:27.215Z,38.43
2019-05-06T23:27:31.892Z,37.20
2019-05-06T23:29:36.213Z,36.07
2019-05-06T23:31:42.479Z,36.03
2019-05-06T23:33:48.658Z,35.97
2019-05-06T23:35:52.994Z,33.77
2019-05-06T23:38:33.930Z,33.80
2019-05-06T23:41:15.162Z,31.63
2019-05-06T23:43:55.804Z,28.43
2019-05-06T23:46:35.883Z,30.40
2019-05-06T23:49:17.858Z,28.80
2019-05-06T23:51:57.730Z,27.30
2019-05-06T23:54:37.512Z,26.37
2019-05-06T23:56:44.074Z,25.17
2019-05-06T23:58:48.481Z,24.17
